Time;durP1;ratioP1;P1;durP2;ratioP2;P2;SDS_P1;SDS_P2;PMS_P1;PMS_P2;Temp;Humidity;BMP_temperature;BMP_pressure;BME280_temperature;BME280_humidity;BME280_pressure;Samples;Min_cycle;Max_cycle;Signal;HPM_P1;HPM_P2
2021/07/21 00:00:51;;;;;;;16.10;11.05;;;17.10;77.30;;;;;;5055324;28;20024;-75
2021/07/21 00:03:20;;;;;;;16.15;10.20;;;17.10;77.70;;;;;;5061336;28;20048;-75
2021/07/21 00:05:47;;;;;;;17.20;10.23;;;17.10;77.70;;;;;;5062666;28;20029;-75
2021/07/21 00:08:12;;;;;;;16.65;10.77;;;17.00;77.90;;;;;;5056260;28;20430;-75
2021/07/21 00:10:39;;;;;;;16.33;10.98;;;17.00;78.00;;;;;;5061413;28;20119;-75
2021/07/21 00:18:47;;;;;;;19.45;10.38;;;16.90;78.30;;;;;;5071274;28;20021;-75
2021/07/21 00:21:14;;;;;;;;;;;17.00;78.70;;;;;;5048389;28;20077;-75
2021/07/21 00:23:41;;;;;;;13.27;9.23;;;16.90;78.30;;;;;;5071620;28;19908;-75
2021/07/21 00:26:07;;;;;;;15.82;10.80;;;16.80;78.80;;;;;;5063773;28;20025;-76
2021/07/21 00:28:34;;;;;;;16.02;10.85;;;16.80;79.00;;;;;;5069228;28;20116;-75
2021/07/21 00:31:01;;;;;;;18.27;10.73;;;16.80;79.20;;;;;;5071151;28;20036;-75
2021/07/21 00:33:26;;;;;;;14.15;10.18;;;16.80;79.50;;;;;;5064482;28;20028;-74
2021/07/21 00:35:52;;;;;;;19.35;11.90;;;16.80;79.60;;;;;;5064462;28;20503;-75
2021/07/21 00:38:18;;;;;;;17.35;10.10;;;16.70;79.80;;;;;;5069167;28;20409;-75
2021/07/21 00:40:43;;;;;;;17.30;11.27;;;16.70;80.00;;;;;;5070861;28;20097;-75
2021/07/21 00:43:10;;;;;;;17.92;10.90;;;16.70;80.00;;;;;;5072507;28;20116;-75
2021/07/21 00:45:35;;;;;;;19.23;10.98;;;16.70;80.00;;;;;;5071007;28;20078;-75
2021/07/21 00:48:01;;;;;;;17.58;11.05;;;16.70;80.20;;;;;;5072379;28;20044;-75
2021/07/21 00:50:27;;;;;;;17.85;11.18;;;16.70;80.30;;;;;;5058388;28;20039;-75
2021/07/21 00:52:53;;;;;;;21.30;10.52;;;16.60;80.40;;;;;;5052380;28;20128;-75
2021/07/21 00:55:19;;;;;;;18.20;11.55;;;16.60;80.40;;;;;;5068396;28;20032;-76
2021/07/21 00:57:46;;;;;;;17.65;11.57;;;16.60;81.10;;;;;;5073669;28;20036;-75
2021/07/21 01:00:18;;;;;;;19.90;10.65;;;16.60;80.60;;;;;;5055010;28;20044;-75
2021/07/21 01:02:45;;;;;;;20.13;11.13;;;16.60;80.60;;;;;;5062165;28;20078;-75
2021/07/21 01:05:17;;;;;;;17.73;10.60;;;16.60;80.70;;;;;;5071102;28;20033;-75
2021/07/21 01:07:45;;;;;;;15.50;10.18;;;16.60;80.90;;;;;;5072448;28;20060;-75
2021/07/21 01:10:11;;;;;;;19.67;11.30;;;16.50;80.90;;;;;;5069985;28;20074;-75
2021/07/21 01:13:02;;;;;;;16.70;9.88;;;16.50;81.10;;;;;;5065765;28;20021;-74
2021/07/21 01:15:56;;;;;;;16.75;10.63;;;16.50;81.30;;;;;;5096694;28;20377;-75
2021/07/21 01:18:36;;;;;;;14.05;9.90;;;16.50;81.30;;;;;;5061546;28;20035;-75
2021/07/21 01:21:14;;;;;;;21.13;11.43;;;16.50;81.50;;;;;;5060999;28;20082;-75
2021/07/21 01:23:49;;;;;;;15.73;10.15;;;16.50;81.70;;;;;;5062983;28;20032;-75
2021/07/21 01:26:16;;;;;;;16.65;10.73;;;16.50;81.70;;;;;;5065739;28;20036;-75
2021/07/21 01:28:44;;;;;;;18.45;11.07;;;16.40;81.60;;;;;;5073211;28;20032;-76
2021/07/21 01:31:15;;;;;;;17.33;10.88;;;16.40;81.70;;;;;;5070895;28;20036;-75
2021/07/21 01:33:43;;;;;;;16.80;10.07;;;16.40;81.90;;;;;;5063181;28;20033;-75
2021/07/21 01:36:13;;;;;;;17.15;10.63;;;16.30;82.00;;;;;;5060257;28;20021;-75
2021/07/21 01:38:55;;;;;;;19.02;10.63;;;16.30;82.00;;;;;;5056703;28;20025;-75
2021/07/21 01:41:28;;;;;;;19.35;10.38;;;16.30;82.20;;;;;;5068283;28;20029;-75
2021/07/21 01:44:22;;;;;;;17.33;10.05;;;16.20;82.40;;;;;;5064584;28;20034;-75
2021/07/21 01:46:53;;;;;;;19.17;11.25;;;16.20;82.40;;;;;;5069986;28;20400;-75
2021/07/21 01:49:20;;;;;;;21.23;10.80;;;16.20;82.80;;;;;;5069384;28;20021;-75
2021/07/21 01:51:47;;;;;;;19.80;10.73;;;16.10;82.80;;;;;;5071207;28;20067;-75
2021/07/21 01:54:15;;;;;;;16.55;10.75;;;16.10;82.90;;;;;;5066864;28;20064;-74
2021/07/21 01:56:41;;;;;;;16.85;11.00;;;16.10;83.00;;;;;;5067154;28;20108;-75
2021/07/21 01:59:08;;;;;;;18.35;11.07;;;16.00;83.00;;;;;;5054544;28;20028;-75
2021/07/21 02:01:34;;;;;;;23.00;11.80;;;16.00;83.00;;;;;;5087302;28;20067;-75
2021/07/21 02:04:02;;;;;;;16.73;11.27;;;16.00;83.00;;;;;;5069753;28;20036;-75
2021/07/21 02:06:31;;;;;;;17.23;10.50;;;16.00;83.10;;;;;;5068581;28;20041;-75
2021/07/21 02:08:58;;;;;;;14.55;9.55;;;16.00;84.00;;;;;;5070439;28;20515;-75
2021/07/21 02:11:25;;;;;;;17.50;11.30;;;15.90;83.20;;;;;;5071215;28;20037;-75
2021/07/21 02:13:56;;;;;;;15.70;10.35;;;15.90;83.30;;;;;;5052992;28;20045;-75
2021/07/21 02:16:22;;;;;;;20.58;11.40;;;15.90;83.60;;;;;;5056626;28;20100;-75
2021/07/21 02:18:50;;;;;;;16.33;11.43;;;15.80;83.60;;;;;;5068063;28;20021;-75
2021/07/21 02:21:17;;;;;;;14.48;10.23;;;15.80;83.80;;;;;;5072799;28;20477;-75
2021/07/21 02:23:46;;;;;;;23.95;11.25;;;15.70;83.80;;;;;;5060478;28;20037;-75
2021/07/21 02:26:12;;;;;;;;;;;15.80;83.80;;;;;;5048486;28;20029;-75
2021/07/21 02:28:38;;;;;;;14.10;10.43;;;15.70;83.40;;;;;;5069048;28;19969;-74
2021/07/21 02:31:09;;;;;;;14.85;10.18;;;15.70;83.70;;;;;;5053560;28;20122;-75
2021/07/21 02:33:53;;;;;;;16.55;9.65;;;15.70;83.80;;;;;;5062101;28;20650;-75
2021/07/21 02:36:18;;;;;;;15.80;10.10;;;15.70;83.90;;;;;;5073097;28;20029;-75
2021/07/21 02:38:45;;;;;;;18.52;9.80;;;15.70;83.80;;;;;;5063303;28;20033;-75
2021/07/21 02:41:11;;;;;;;18.65;9.95;;;15.70;83.90;;;;;;5056586;28;20036;-75
2021/07/21 02:43:37;;;;;;;16.30;10.93;;;15.70;83.90;;;;;;5069412;28;20404;-75
2021/07/21 02:46:03;;;;;;;17.98;10.48;;;15.70;83.90;;;;;;5073958;28;20039;-74
2021/07/21 02:48:28;;;;;;;17.10;10.30;;;15.70;83.90;;;;;;5073761;28;20055;-75
2021/07/21 02:51:01;;;;;;;19.83;11.00;;;15.70;84.00;;;;;;5055076;28;20486;-75
2021/07/21 02:53:32;;;;;;;15.10;10.77;;;15.70;84.10;;;;;;5059238;28;20033;-75
2021/07/21 02:56:20;;;;;;;15.73;10.05;;;15.70;84.10;;;;;;5073918;28;20036;-75
2021/07/21 02:59:03;;;;;;;20.08;11.10;;;15.70;84.30;;;;;;5074422;28;20098;-75
2021/07/21 03:01:34;;;;;;;16.95;10.18;;;15.60;84.30;;;;;;5075117;28;20036;-75
2021/07/21 03:04:01;;;;;;;15.55;9.85;;;15.60;84.20;;;;;;5069457;28;20037;-75
2021/07/21 03:06:30;;;;;;;17.73;10.45;;;15.60;84.20;;;;;;5056995;28;20036;-75
2021/07/21 03:08:56;;;;;;;19.13;10.65;;;15.60;84.10;;;;;;5060343;28;20037;-75
2021/07/21 03:11:23;;;;;;;17.70;9.68;;;15.60;84.00;;;;;;5054488;28;20033;-75
2021/07/21 03:13:52;;;;;;;19.17;11.15;;;15.60;84.40;;;;;;5065233;28;20540;-75
2021/07/21 03:16:23;;;;;;;16.10;9.85;;;15.60;84.50;;;;;;5064805;28;20028;-75
2021/07/21 03:18:52;;;;;;;15.32;10.48;;;15.60;84.40;;;;;;5065817;28;20466;-75
2021/07/21 03:21:19;;;;;;;14.65;10.10;;;15.60;84.50;;;;;;5068809;28;20028;-75
2021/07/21 03:23:46;;;;;;;19.85;10.38;;;15.60;84.40;;;;;;5070743;28;20033;-76
2021/07/21 03:26:12;;;;;;;19.48;9.77;;;15.50;84.40;;;;;;5073241;28;20039;-75
2021/07/21 03:28:38;;;;;;;15.00;9.68;;;15.50;84.50;;;;;;5072763;28;20029;-75
2021/07/21 03:31:05;;;;;;;14.98;9.40;;;15.50;84.50;;;;;;5074866;28;20029;-75
2021/07/21 03:33:31;;;;;;;15.43;10.20;;;15.50;84.50;;;;;;5049402;28;20033;-75
2021/07/21 03:36:06;;;;;;;19.48;11.55;;;15.50;84.50;;;;;;5054106;28;20021;-75
2021/07/21 03:38:32;;;;;;;14.80;10.73;;;15.40;84.70;;;;;;5062151;28;20029;-75
2021/07/21 03:40:59;;;;;;;16.15;10.88;;;15.50;84.70;;;;;;5062994;28;20060;-76
2021/07/21 03:43:25;;;;;;;16.55;10.68;;;15.40;84.70;;;;;;5057960;28;20115;-75
2021/07/21 03:45:55;;;;;;;16.38;10.80;;;15.40;85.40;;;;;;5073974;28;20033;-75
2021/07/21 03:48:23;;;;;;;19.75;10.52;;;15.40;84.80;;;;;;5063702;28;20037;-75
2021/07/21 03:50:49;;;;;;;12.68;9.25;;;15.40;84.80;;;;;;5066734;28;20089;-75
2021/07/21 03:53:15;;;;;;;15.13;11.05;;;15.30;84.90;;;;;;5072792;28;20497;-74
2021/07/21 03:55:41;;;;;;;16.08;10.30;;;15.30;84.80;;;;;;5072212;28;20032;-74
2021/07/21 03:58:08;;;;;;;15.23;10.05;;;15.40;85.00;;;;;;5060278;28;20036;-75
2021/07/21 04:00:35;;;;;;;17.00;10.18;;;15.40;85.00;;;;;;5055815;28;20044;-75
2021/07/21 04:03:02;;;;;;;16.02;9.23;;;15.40;85.00;;;;;;5057117;28;20027;-74
2021/07/21 04:05:30;;;;;;;13.52;9.57;;;15.30;85.00;;;;;;5053448;28;20033;-75
2021/07/21 04:07:57;;;;;;;15.45;10.25;;;15.40;85.00;;;;;;5064936;28;20031;-74
2021/07/21 04:10:23;;;;;;;13.75;9.85;;;15.30;84.90;;;;;;5090391;28;20029;-75
2021/07/21 04:12:52;;;;;;;15.48;10.30;;;15.40;84.90;;;;;;5068224;28;20638;-75
2021/07/21 04:15:21;;;;;;;17.88;10.50;;;15.40;84.90;;;;;;5057706;28;20432;-75
2021/07/21 04:17:49;;;;;;;12.48;9.25;;;15.40;84.90;;;;;;5064839;28;20041;-75
2021/07/21 04:20:15;;;;;;;18.75;10.68;;;15.30;85.70;;;;;;5069412;28;20098;-75
2021/07/21 04:22:41;;;;;;;14.70;9.43;;;15.30;85.20;;;;;;5063414;28;20051;-75
2021/07/21 04:25:09;;;;;;;13.95;9.65;;;15.30;85.40;;;;;;5073930;28;20028;-75
2021/07/21 04:27:36;;;;;;;17.55;10.07;;;15.30;85.50;;;;;;5069990;28;20031;-75
2021/07/21 04:30:04;;;;;;;17.20;10.20;;;15.30;85.60;;;;;;5055714;28;20040;-74
2021/07/21 04:32:30;;;;;;;20.65;11.45;;;15.40;85.70;;;;;;5073399;28;20032;-75
2021/07/21 04:34:56;;;;;;;17.40;11.05;;;15.40;85.50;;;;;;5073351;28;20038;-75
2021/07/21 04:37:23;;;;;;;14.25;9.90;;;15.40;85.50;;;;;;5068402;28;20447;-75
2021/07/21 04:39:52;;;;;;;16.35;9.75;;;15.40;85.50;;;;;;5068741;28;20025;-76
2021/07/21 04:42:18;;;;;;;;;;;15.50;85.70;;;;;;5070423;28;20059;-75
2021/07/21 04:44:45;;;;;;;18.13;10.63;;;15.50;85.40;;;;;;5090440;28;19951;-75
2021/07/21 04:47:12;;;;;;;16.80;10.52;;;15.50;85.60;;;;;;5071768;28;20051;-75
2021/07/21 04:49:41;;;;;;;18.80;9.85;;;15.50;85.50;;;;;;5044528;28;20432;-75
2021/07/21 04:52:08;;;;;;;17.80;10.18;;;15.60;85.30;;;;;;5061718;28;20046;-76
2021/07/21 04:54:34;;;;;;;18.48;10.52;;;15.60;85.10;;;;;;5053345;28;20469;-75
2021/07/21 04:57:00;;;;;;;15.63;10.18;;;15.70;85.10;;;;;;5064352;28;20029;-75
2021/07/21 04:59:27;;;;;;;21.27;11.38;;;15.70;84.80;;;;;;5064234;28;20375;-75
2021/07/21 05:01:53;;;;;;;17.05;10.15;;;15.80;84.90;;;;;;5069558;28;20053;-75
2021/07/21 05:04:18;;;;;;;18.15;10.70;;;15.80;84.80;;;;;;5063516;28;20115;-75
2021/07/21 05:06:45;;;;;;;17.40;10.95;;;15.90;84.70;;;;;;5052571;28;20478;-75
2021/07/21 05:09:11;;;;;;;16.02;10.55;;;16.00;84.50;;;;;;5068448;28;20066;-75
2021/07/21 05:11:37;;;;;;;25.35;10.75;;;16.00;84.30;;;;;;5059247;28;20060;-75
2021/07/21 05:14:04;;;;;;;15.15;9.45;;;16.10;84.20;;;;;;5072812;28;20032;-75
2021/07/21 05:16:30;;;;;;;16.27;9.75;;;16.10;84.00;;;;;;5070242;28;20029;-75
2021/07/21 05:18:55;;;;;;;15.25;9.57;;;16.20;83.70;;;;;;5080118;28;20477;-75
2021/07/21 05:21:22;;;;;;;14.18;9.52;;;16.30;83.70;;;;;;5070961;28;20032;-75
2021/07/21 05:23:49;;;;;;;16.58;9.35;;;16.30;83.50;;;;;;5065068;28;20052;-75
2021/07/21 05:26:15;;;;;;;19.02;9.65;;;16.40;83.20;;;;;;5070404;28;20036;-75
2021/07/21 05:28:41;;;;;;;17.65;9.38;;;16.50;83.60;;;;;;5062641;28;20499;-75
2021/07/21 05:31:07;;;;;;;13.68;9.05;;;16.60;82.70;;;;;;5047116;28;20025;-75
2021/07/21 05:33:33;;;;;;;12.05;8.93;;;16.70;82.30;;;;;;5063759;28;20064;-75
2021/07/21 05:35:59;;;;;;;14.27;8.75;;;16.80;82.00;;;;;;5056180;28;20072;-75
2021/07/21 05:38:25;;;;;;;17.70;9.82;;;16.80;81.60;;;;;;5064494;28;20068;-75
2021/07/21 05:40:51;;;;;;;15.38;8.38;;;16.90;81.20;;;;;;5057843;28;20676;-75
2021/07/21 05:43:17;;;;;;;16.55;9.48;;;17.00;80.90;;;;;;5068140;28;20054;-75
2021/07/21 05:45:42;;;;;;;13.93;8.65;;;17.00;80.50;;;;;;5047714;28;20074;-75
2021/07/21 05:48:08;;;;;;;17.45;9.57;;;17.10;80.40;;;;;;5054624;28;20067;-75
2021/07/21 05:50:34;;;;;;;13.32;8.43;;;17.20;80.20;;;;;;5043075;28;20025;-75
2021/07/21 05:53:00;;;;;;;18.00;9.75;;;17.30;79.90;;;;;;5072136;28;20400;-75
2021/07/21 05:55:25;;;;;;;14.10;8.05;;;17.30;79.40;;;;;;5068244;28;20082;-75
2021/07/21 05:57:51;;;;;;;12.35;8.32;;;17.40;79.40;;;;;;5067487;28;20070;-74
2021/07/21 06:00:17;;;;;;;11.27;6.78;;;17.50;78.90;;;;;;5070549;28;20449;-75
2021/07/21 06:02:43;;;;;;;13.65;7.13;;;17.60;78.40;;;;;;5054229;28;20029;-74
2021/07/21 06:05:09;;;;;;;13.13;7.72;;;17.70;78.50;;;;;;5060771;28;20548;-75
2021/07/21 06:07:35;;;;;;;11.77;7.43;;;17.80;77.90;;;;;;5067295;28;20032;-75
2021/07/21 06:10:01;;;;;;;13.13;7.70;;;17.90;77.20;;;;;;5062140;28;20083;-75
2021/07/21 06:12:27;;;;;;;10.70;6.63;;;17.90;76.70;;;;;;5066975;28;20028;-75
2021/07/21 06:14:53;;;;;;;11.18;6.43;;;18.00;76.60;;;;;;5080000;28;20439;-75
2021/07/21 06:17:19;;;;;;;11.45;6.88;;;18.10;76.60;;;;;;5071360;28;20020;-76
2021/07/21 06:19:45;;;;;;;11.40;6.65;;;18.10;76.00;;;;;;5061582;28;20025;-75
2021/07/21 06:22:18;;;;;;;9.13;6.32;;;18.20;75.60;;;;;;5052547;28;20025;-75
2021/07/21 06:24:44;;;;;;;9.00;6.65;;;18.30;75.50;;;;;;5059055;28;20401;-76
2021/07/21 06:27:09;;;;;;;9.60;7.18;;;18.40;75.60;;;;;;5051305;28;20032;-76
2021/07/21 06:29:35;;;;;;;14.57;7.00;;;18.50;75.50;;;;;;5034652;28;20033;-76
2021/07/21 06:32:01;;;;;;;15.68;6.75;;;18.50;75.10;;;;;;5052535;28;20477;-75
2021/07/21 06:34:26;;;;;;;11.07;7.03;;;18.60;74.80;;;;;;5057219;28;20485;-76
2021/07/21 06:36:52;;;;;;;12.07;6.45;;;18.70;74.70;;;;;;5070959;28;20040;-76
2021/07/21 06:39:18;;;;;;;13.95;6.85;;;18.80;74.60;;;;;;5054623;28;20456;-76
2021/07/21 06:41:43;;;;;;;14.70;7.95;;;19.00;74.40;;;;;;5061606;28;20104;-76
2021/07/21 06:44:09;;;;;;;12.48;6.75;;;19.00;74.10;;;;;;5071175;28;20041;-76
2021/07/21 06:46:34;;;;;;;9.77;6.75;;;19.10;72.90;;;;;;5070830;28;20029;-76
2021/07/21 06:49:00;;;;;;;12.93;7.28;;;19.10;72.90;;;;;;5070068;28;20033;-76
2021/07/21 06:51:26;;;;;;;15.73;7.38;;;19.30;72.70;;;;;;5052475;28;20475;-75
2021/07/21 06:53:51;;;;;;;11.93;7.53;;;19.30;72.10;;;;;;5051477;28;20079;-75
2021/07/21 06:56:17;;;;;;;10.07;7.15;;;19.40;72.20;;;;;;5054177;28;20386;-75
2021/07/21 06:58:43;;;;;;;10.05;7.38;;;19.50;72.00;;;;;;5060041;28;20033;-75
2021/07/21 07:01:09;;;;;;;12.27;6.78;;;19.60;71.70;;;;;;5069469;28;20079;-75
2021/07/21 07:03:35;;;;;;;15.07;8.00;;;19.80;71.40;;;;;;5070929;28;20484;-76
2021/07/21 07:06:02;;;;;;;11.07;6.63;;;19.90;70.70;;;;;;5068969;28;20089;-75
2021/07/21 07:08:29;;;;;;;13.00;6.70;;;20.00;70.00;;;;;;5073014;28;20025;-75
2021/07/21 07:10:55;;;;;;;11.65;7.10;;;20.20;70.30;;;;;;5055597;28;20040;-75
2021/07/21 07:13:21;;;;;;;15.35;6.95;;;20.30;69.90;;;;;;5050542;28;20033;-75
2021/07/21 07:15:49;;;;;;;11.13;7.32;;;20.40;69.40;;;;;;5064954;28;20497;-76
2021/07/21 07:18:14;;;;;;;11.07;6.70;;;20.50;68.90;;;;;;5071835;28;20028;-75
2021/07/21 07:20:47;;;;;;;10.13;7.18;;;20.70;68.50;;;;;;5054340;28;20037;-76
2021/07/21 07:23:13;;;;;;;9.88;6.50;;;20.80;68.20;;;;;;5074210;28;20055;-74
2021/07/21 07:25:40;;;;;;;10.65;6.30;;;20.90;68.00;;;;;;5073369;28;20020;-75
2021/07/21 07:28:06;;;;;;;13.77;7.30;;;21.00;67.90;;;;;;5068527;28;20124;-75
2021/07/21 07:30:32;;;;;;;10.60;6.75;;;21.10;67.20;;;;;;5053847;28;20084;-75
2021/07/21 07:32:58;;;;;;;8.57;5.80;;;21.30;66.70;;;;;;5074210;28;20036;-76
2021/07/21 07:35:24;;;;;;;14.23;6.50;;;21.40;65.90;;;;;;5071766;28;20485;-75
2021/07/21 07:37:50;;;;;;;10.93;5.90;;;21.40;65.90;;;;;;5060452;28;20032;-75
2021/07/21 07:40:16;;;;;;;9.50;5.45;;;21.50;65.20;;;;;;5064952;28;20035;-75
2021/07/21 07:42:41;;;;;;;11.02;5.78;;;21.70;64.30;;;;;;5074603;28;20097;-76
2021/07/21 07:45:07;;;;;;;13.10;5.07;;;21.70;64.40;;;;;;5073895;28;20474;-76
2021/07/21 07:47:33;;;;;;;7.45;4.97;;;21.80;63.60;;;;;;5062461;28;20052;-76
2021/07/21 07:50:00;;;;;;;8.95;5.10;;;21.90;63.50;;;;;;5054507;28;20040;-76
2021/07/21 07:52:26;;;;;;;10.13;4.57;;;22.00;62.70;;;;;;5037786;28;20128;-76
2021/07/21 07:54:52;;;;;;;7.88;4.85;;;22.00;61.80;;;;;;5062692;28;20125;-77
2021/07/21 07:57:18;;;;;;;6.95;4.13;;;22.20;61.40;;;;;;5077762;28;20027;-76
2021/07/21 07:59:44;;;;;;;8.63;5.15;;;22.20;60.80;;;;;;5065432;28;20036;-77
2021/07/21 08:02:10;;;;;;;8.60;4.78;;;22.30;59.70;;;;;;5055164;28;20094;-76
2021/07/21 08:04:35;;;;;;;7.45;5.35;;;22.40;59.80;;;;;;5043112;28;20549;-76
2021/07/21 08:07:01;;;;;;;11.48;5.45;;;22.50;60.00;;;;;;5050248;28;20043;-75
2021/07/21 08:09:27;;;;;;;6.75;4.07;;;22.60;59.80;;;;;;5074854;28;20016;-76
2021/07/21 08:11:54;;;;;;;12.07;4.20;;;22.70;59.20;;;;;;5056688;28;20021;-76
2021/07/21 08:14:20;;;;;;;8.57;4.32;;;22.80;58.70;;;;;;5071222;28;20029;-76
2021/07/21 08:16:48;;;;;;;8.35;4.65;;;22.90;58.10;;;;;;5069353;28;20024;-77
2021/07/21 08:19:14;;;;;;;11.02;4.50;;;22.90;57.80;;;;;;5073662;28;20017;-76
2021/07/21 08:21:39;;;;;;;10.18;4.97;;;23.10;57.60;;;;;;5044079;28;20048;-76
2021/07/21 08:24:05;;;;;;;10.20;4.45;;;23.20;57.70;;;;;;5056483;28;20090;-76
2021/07/21 08:26:31;;;;;;;8.20;4.47;;;23.30;57.00;;;;;;5062899;28;20132;-76
2021/07/21 08:28:56;;;;;;;8.50;4.40;;;23.30;55.40;;;;;;5049830;28;20048;-77
2021/07/21 08:31:22;;;;;;;6.50;4.50;;;23.30;55.10;;;;;;5056205;28;20024;-77
2021/07/21 08:33:48;;;;;;;7.13;4.70;;;23.30;54.80;;;;;;5075937;28;20053;-77
2021/07/21 08:36:13;;;;;;;8.75;4.60;;;23.30;54.50;;;;;;5037783;28;20029;-79
2021/07/21 08:38:40;;;;;;;5.30;4.22;;;23.40;55.00;;;;;;5051181;28;20048;-78
2021/07/21 08:41:05;;;;;;;7.03;4.43;;;23.50;55.00;;;;;;5063918;28;20120;-79
2021/07/21 08:43:31;;;;;;;7.43;4.18;;;23.60;54.70;;;;;;5072793;28;20111;-78
2021/07/21 08:45:58;;;;;;;10.15;4.50;;;23.70;53.50;;;;;;5072844;28;20059;-77
2021/07/21 08:48:24;;;;;;;7.10;4.30;;;23.70;54.20;;;;;;5080822;28;20541;-77
2021/07/21 08:50:50;;;;;;;8.60;4.70;;;23.80;53.80;;;;;;5053318;28;20131;-77
2021/07/21 08:53:17;;;;;;;10.57;3.97;;;23.90;53.30;;;;;;5072855;28;20032;-77
2021/07/21 08:55:43;;;;;;;5.85;4.55;;;23.90;53.70;;;;;;5065541;28;20161;-77
2021/07/21 08:58:11;;;;;;;5.00;4.20;;;24.00;52.60;;;;;;5074036;28;20025;-77
2021/07/21 09:00:37;;;;;;;5.47;3.90;;;24.00;52.10;;;;;;5074191;28;20466;-78
2021/07/21 09:03:03;;;;;;;6.07;4.30;;;24.10;52.50;;;;;;5073409;28;20024;-79
2021/07/21 09:05:29;;;;;;;6.53;4.03;;;24.20;51.70;;;;;;5072746;28;20048;-79
2021/07/21 09:07:55;;;;;;;8.38;4.60;;;24.30;51.10;;;;;;5072919;28;20043;-79
2021/07/21 09:10:21;;;;;;;8.32;5.07;;;24.30;51.60;;;;;;5072383;28;20469;-78
2021/07/21 09:12:49;;;;;;;6.38;4.38;;;24.40;49.80;;;;;;5067546;28;20040;-79
2021/07/21 09:15:18;;;;;;;6.38;4.53;;;24.40;50.60;;;;;;5071398;28;20048;-78
2021/07/21 09:18:08;;;;;;;7.30;4.43;;;24.50;50.20;;;;;;5072680;28;20393;-78
2021/07/21 09:20:47;;;;;;;10.00;4.47;;;24.50;50.00;;;;;;5073883;28;20024;-78
2021/07/21 09:23:13;;;;;;;;;;;24.50;50.80;;;;;;5073925;28;20035;-78
2021/07/21 09:25:41;;;;;;;9.05;4.82;;;24.60;50.80;;;;;;5055787;28;20724;-79
2021/07/21 09:28:10;;;;;;;10.35;4.70;;;24.70;50.60;;;;;;5072521;28;20036;-78
2021/07/21 09:30:47;;;;;;;5.53;4.00;;;24.80;50.50;;;;;;5082138;28;20055;-78
2021/07/21 09:33:15;;;;;;;9.23;4.40;;;24.90;50.00;;;;;;5072233;28;20060;-78
2021/07/21 09:35:44;;;;;;;3.70;3.40;;;24.90;49.70;;;;;;5065923;28;20025;-78
2021/07/21 09:38:13;;;;;;;7.68;4.57;;;24.90;48.70;;;;;;5052228;28;20421;-79
2021/07/21 09:40:46;;;;;;;10.20;4.88;;;25.00;49.10;;;;;;5056484;28;20082;-77
2021/07/21 09:43:16;;;;;;;7.88;4.50;;;24.60;48.70;;;;;;5061322;28;20032;-78
2021/07/21 09:45:43;;;;;;;7.47;4.60;;;24.40;50.80;;;;;;5065059;28;20044;-79
2021/07/21 09:48:10;;;;;;;8.88;5.10;;;24.40;50.60;;;;;;5065739;28;20143;-78
2021/07/21 09:50:42;;;;;;;6.18;4.85;;;24.60;49.80;;;;;;5048491;28;20033;-78
2021/07/21 09:53:12;;;;;;;7.28;4.90;;;24.70;49.10;;;;;;5058130;28;20433;-78
2021/07/21 09:55:39;;;;;;;7.45;4.45;;;24.70;48.50;;;;;;5075890;28;20025;-78
2021/07/21 09:58:08;;;;;;;11.25;5.07;;;24.80;49.60;;;;;;5055198;28;20116;-78
2021/07/21 10:00:42;;;;;;;7.97;5.30;;;25.00;49.50;;;;;;5082846;28;20060;-78
2021/07/21 10:03:07;;;;;;;6.63;4.03;;;25.20;47.60;;;;;;5060769;28;20024;-78
2021/07/21 10:05:33;;;;;;;5.95;4.50;;;25.30;48.60;;;;;;5073472;28;20066;-79
2021/07/21 10:08:02;;;;;;;8.43;4.60;;;25.40;48.40;;;;;;5070018;28;20056;-80
2021/07/21 10:10:29;;;;;;;8.35;4.43;;;25.60;48.30;;;;;;5055799;28;20134;-81
2021/07/21 10:12:59;;;;;;;5.78;4.47;;;25.70;47.80;;;;;;5073231;28;20032;-80
2021/07/21 10:15:25;;;;;;;7.35;4.43;;;25.70;47.70;;;;;;5088743;28;20028;-80
2021/07/21 10:18:09;;;;;;;5.00;3.70;;;25.90;48.80;;;;;;5088838;28;20021;-81
2021/07/21 10:20:35;;;;;;;8.85;5.15;;;26.10;47.90;;;;;;5071717;28;20024;-81
2021/07/21 10:23:02;;;;;;;9.77;4.85;;;26.10;46.20;;;;;;5071989;28;20052;-81
2021/07/21 10:25:30;;;;;;;4.95;4.20;;;26.00;47.20;;;;;;5071939;28;20454;-80
2021/07/21 10:27:57;;;;;;;6.00;3.77;;;25.90;47.90;;;;;;5071899;28;20086;-80
2021/07/21 10:30:27;;;;;;;5.37;4.13;;;25.80;47.70;;;;;;5077222;28;20344;-80
2021/07/21 10:32:55;;;;;;;8.70;4.57;;;25.80;46.60;;;;;;5055049;28;20028;-80
2021/07/21 10:35:27;;;;;;;5.47;4.30;;;25.80;47.10;;;;;;5073152;28;20099;-81
2021/07/21 10:37:54;;;;;;;4.53;3.80;;;25.80;47.70;;;;;;5073011;28;20025;-80
2021/07/21 10:40:26;;;;;;;6.88;4.13;;;25.90;47.40;;;;;;5071762;28;20025;-81
2021/07/21 10:42:54;;;;;;;7.22;5.07;;;26.10;47.20;;;;;;5058350;28;20111;-79
2021/07/21 10:45:27;;;;;;;7.05;4.50;;;26.10;45.90;;;;;;5063380;28;20422;-78
2021/07/21 10:48:22;;;;;;;8.18;4.57;;;26.10;46.20;;;;;;5069374;28;20511;-78
2021/07/21 10:53:39;;;;;;;8.43;4.53;;;26.10;47.00;;;;;;5074439;28;20040;-83
2021/07/21 10:59:11;;;;;;;10.60;4.50;;;26.20;46.30;;;;;;5071150;28;20086;-83
2021/07/21 11:01:44;;;;;;;7.65;4.53;;;26.00;46.60;;;;;;5068501;28;20107;-83
2021/07/21 11:04:10;;;;;;;9.27;4.90;;;25.70;46.90;;;;;;5076330;28;20372;-84
2021/07/21 11:06:44;;;;;;;6.63;4.70;;;25.40;48.00;;;;;;5087918;28;20535;-83
2021/07/21 11:09:24;;;;;;;10.18;4.70;;;25.50;47.80;;;;;;5076392;28;20047;-83
2021/07/21 11:11:54;;;;;;;5.68;4.95;;;25.60;47.10;;;;;;5076530;28;20481;-84
2021/07/21 11:14:33;;;;;;;7.07;5.10;;;25.80;47.40;;;;;;5074947;28;20024;-85
2021/07/21 11:17:02;;;;;;;6.05;4.72;;;26.00;47.20;;;;;;5076034;28;20020;-83
2021/07/21 11:19:33;;;;;;;;;;;26.30;47.10;;;;;;5092197;28;20090;-84
2021/07/21 11:22:06;;;;;;;7.20;4.90;;;26.50;46.50;;;;;;5091713;28;19904;-83
2021/07/21 11:25:10;;;;;;;5.75;4.70;;;26.60;45.70;;;;;;5058073;28;20021;-85
2021/07/21 11:27:39;;;;;;;5.88;4.78;;;26.50;45.90;;;;;;5058097;28;20063;-84
2021/07/21 11:30:30;;;;;;;8.10;4.90;;;26.20;45.90;;;;;;5075835;28;20033;-82
2021/07/21 11:32:56;;;;;;;8.65;5.10;;;25.90;46.20;;;;;;5063497;28;20104;-82
2021/07/21 11:35:40;;;;;;;6.85;4.85;;;25.90;45.60;;;;;;5054768;28;20545;-81
2021/07/21 11:38:17;;;;;;;8.55;5.18;;;25.90;45.60;;;;;;5063237;28;20542;-80
2021/07/21 11:40:44;;;;;;;7.45;4.90;;;25.70;46.60;;;;;;5075753;28;20029;-79
2021/07/21 11:43:33;;;;;;;10.25;5.50;;;25.50;47.60;;;;;;5066014;28;20493;-79
2021/07/21 11:46:09;;;;;;;6.57;4.75;;;25.60;48.50;;;;;;5055889;28;20021;-80
2021/07/21 11:48:35;;;;;;;8.40;4.75;;;25.90;48.10;;;;;;5067855;28;20136;-80
2021/07/21 11:51:01;;;;;;;9.15;5.50;;;26.30;47.70;;;;;;5057783;28;20552;-80
2021/07/21 11:53:27;;;;;;;7.18;5.22;;;26.50;46.80;;;;;;5066341;28;20036;-83
2021/07/21 11:55:53;;;;;;;7.20;5.45;;;26.60;48.00;;;;;;5075456;28;20101;-84
2021/07/21 11:58:19;;;;;;;6.53;4.95;;;26.70;46.80;;;;;;5074410;28;20119;-83
2021/07/21 12:00:49;;;;;;;8.88;5.72;;;27.00;46.20;;;;;;5075569;28;20100;-83
2021/07/21 12:03:15;;;;;;;9.43;5.63;;;27.20;43.60;;;;;;5075491;28;20090;-83
2021/07/21 12:05:52;;;;;;;8.05;5.50;;;27.00;44.90;;;;;;5074622;28;20400;-83
2021/07/21 12:08:19;;;;;;;7.43;5.95;;;26.80;45.80;;;;;;5090970;28;20047;-83
2021/07/21 12:10:45;;;;;;;10.07;5.82;;;26.60;45.70;;;;;;5075202;28;20037;-83
2021/07/21 12:13:12;;;;;;;9.88;5.78;;;26.20;46.70;;;;;;5073919;28;20070;-83
2021/07/21 12:15:39;;;;;;;7.17;5.33;;;26.00;48.20;;;;;;5074080;28;20021;-83
2021/07/21 12:18:24;;;;;;;11.52;6.45;;;26.00;48.10;;;;;;5075089;28;20620;-83
2021/07/21 12:20:50;;;;;;;8.60;6.65;;;26.20;47.70;;;;;;5073786;28;20449;-84
2021/07/21 12:23:20;;;;;;;8.10;6.45;;;26.40;46.60;;;;;;5073924;28;20065;-83
2021/07/21 12:25:46;;;;;;;14.20;6.65;;;26.50;47.00;;;;;;5090485;28;20056;-84
2021/07/21 12:28:11;;;;;;;10.80;6.90;;;26.50;46.90;;;;;;5074781;28;20060;-84
2021/07/21 12:30:37;;;;;;;8.18;6.40;;;26.40;47.00;;;;;;5073665;28;20528;-84
2021/07/21 12:33:04;;;;;;;9.15;6.80;;;26.40;46.80;;;;;;5073595;28;20082;-84
2021/07/21 12:35:30;;;;;;;10.27;6.60;;;26.40;46.60;;;;;;5074378;28;20470;-83
2021/07/21 12:37:58;;;;;;;9.45;6.85;;;26.60;45.90;;;;;;5075049;28;20031;-84
2021/07/21 12:40:28;;;;;;;8.25;6.78;;;26.90;46.40;;;;;;5073329;28;20059;-84
2021/07/21 12:42:57;;;;;;;13.65;6.88;;;27.20;45.20;;;;;;5074691;28;20032;-84
2021/07/21 12:45:27;;;;;;;9.98;6.85;;;27.30;45.60;;;;;;5074083;28;20021;-84
2021/07/21 12:47:55;;;;;;;10.90;7.05;;;27.50;44.90;;;;;;5074329;28;20052;-83
2021/07/21 12:50:25;;;;;;;11.70;8.23;;;27.70;44.50;;;;;;5074446;28;20025;-84
2021/07/21 12:53:05;;;;;;;13.85;7.28;;;27.70;44.60;;;;;;5072921;28;20031;-84
2021/07/21 12:55:33;;;;;;;12.32;7.57;;;27.50;44.90;;;;;;5073229;28;20037;-84